Time;durP1;ratioP1;P1;durP2;ratioP2;P2;SDS_P1;SDS_P2;PMS_P1;PMS_P2;Temp;Humidity;BMP_temperature;BMP_pressure;BME280_temperature;BME280_humidity;BME280_pressure;Samples;Min_cycle;Max_cycle;Signal;HPM_P1;HPM_P2
2024/02/02 01:11:53;;;;;;;8.65;5.20;;;;;;;;;;6126651;23;20925;-96
2024/02/02 01:14:23;;;;;;;14.90;6.13;;;;;;;;;;6108177;23;20452;-87
2024/02/02 01:16:52;;;;;;;8.93;5.25;;;;;;;;;;6113099;23;20010;-87
2024/02/02 01:19:18;;;;;;;8.07;5.47;;;;;;;;;;6110917;23;20006;-88
2024/02/02 01:21:54;;;;;;;7.65;5.28;;;;;;;;;;6112347;23;20016;-87
2024/02/02 01:24:33;;;;;;;13.30;4.82;;;;;;;;;;6138460;23;20024;-88
2024/02/02 01:27:02;;;;;;;9.70;5.78;;;;;;;;;;6125413;23;20005;-90
2024/02/02 01:29:29;;;;;;;13.23;5.50;;;;;;;;;;6114104;23;20013;-88
2024/02/02 01:32:07;;;;;;;8.98;5.68;;;;;;;;;;6118213;23;19986;-87
2024/02/02 01:34:52;;;;;;;11.07;5.22;;;;;;;;;;6138241;23;20309;-87
2024/02/02 01:37:18;;;;;;;10.98;5.75;;;;;;;;;;6119957;23;20041;-86
2024/02/02 01:39:52;;;;;;;11.25;5.40;;;;;;;;;;6139960;23;20030;-87
2024/02/02 01:42:18;;;;;;;13.20;6.18;;;;;;;;;;6136017;23;20006;-87
2024/02/02 01:44:44;;;;;;;11.80;7.03;;;;;;;;;;6135756;23;20037;-87
2024/02/02 01:47:10;;;;;;;11.13;6.00;;;;;;;;;;6134090;23;20033;-88
2024/02/02 01:49:51;;;;;;;10.93;6.15;;;;;;;;;;6135517;23;20009;-88
2024/02/02 01:52:50;;;;;;;12.55;5.88;;;;;;;;;;6135806;23;20006;-87
2024/02/02 01:55:22;;;;;;;11.73;5.97;;;;;;;;;;6135433;23;20049;-87
2024/02/02 01:57:54;;;;;;;10.07;4.90;;;;;;;;;;6131498;23;20009;-87
2024/02/02 02:00:26;;;;;;;7.55;4.72;;;;;;;;;;6133727;23;20002;-88
2024/02/02 02:02:52;;;;;;;9.95;4.40;;;;;;;;;;6135985;23;20040;-87
2024/02/02 02:05:28;;;;;;;9.43;5.22;;;;;;;;;;6111104;23;20059;-87
2024/02/02 05:41:05;;;;;;;9.93;3.63;;;;;;;;;;6041721;23;20953;31
2024/02/02 07:20:29;;;;;;;10.48;8.85;;;;;;;;;;6113828;23;20075;-94
2024/02/02 07:23:07;;;;;;;12.52;11.35;;;;;;;;;;6088448;23;20340;-96
2024/02/02 07:25:37;;;;;;;13.90;12.55;;;;;;;;;;6085100;23;20014;-92
2024/02/02 07:30:59;;;;;;;12.95;10.45;;;;;;;;;;6146570;23;20025;-93
2024/02/02 07:33:47;;;;;;;13.82;12.52;;;;;;;;;;6180414;23;20016;-96
2024/02/02 07:51:03;;;;;;;10.20;5.38;;;;;;;;;;6180092;23;20029;-95
2024/02/02 07:53:32;;;;;;;10.90;5.22;;;;;;;;;;6165796;23;20085;-91
2024/02/02 07:58:36;;;;;;;12.25;4.95;;;;;;;;;;6181758;23;20057;-90
2024/02/02 08:01:35;;;;;;;11.23;6.32;;;;;;;;;;6171154;23;20052;-95
2024/02/02 08:15:18;;;;;;;11.30;5.82;;;;;;;;;;6130750;23;20568;-95
2024/02/02 08:20:20;;;;;;;9.63;6.20;;;;;;;;;;6140499;23;20022;-88
2024/02/02 08:31:51;;;;;;;14.38;8.48;;;;;;;;;;6179654;23;20028;-89
2024/02/02 08:34:30;;;;;;;13.27;7.53;;;;;;;;;;6153879;23;20051;-96
2024/02/02 08:43:20;;;;;;;12.40;7.53;;;;;;;;;;6135953;23;20045;-93
2024/02/02 08:46:06;;;;;;;10.52;6.53;;;;;;;;;;6112576;23;20005;-94
2024/02/02 08:51:53;;;;;;;11.25;6.78;;;;;;;;;;6134826;23;20355;-94
2024/02/02 08:54:19;;;;;;;14.57;9.23;;;;;;;;;;6103267;23;20010;-95
2024/02/02 08:57:07;;;;;;;18.17;11.27;;;;;;;;;;6106144;23;20013;-96
2024/02/02 09:00:14;;;;;;;;;;;;;;;;;;;;;
2024/02/02 09:03:03;;;;;;;13.40;9.55;;;;;;;;;;6129414;23;20142;-96
2024/02/02 09:05:59;;;;;;;12.65;9.52;;;;;;;;;;6101917;23;20021;-96
2024/02/02 09:08:32;;;;;;;13.70;9.23;;;;;;;;;;6103601;23;20114;-89
2024/02/02 09:10:58;;;;;;;;;;;;;;;;;;6133169;23;20013;-95
2024/02/02 09:13:30;;;;;;;14.23;8.80;;;;;;;;;;6158881;23;19912;-90
2024/02/02 09:15:57;;;;;;;12.23;10.93;;;;;;;;;;6158238;23;20056;-89
2024/02/02 09:18:43;;;;;;;14.48;11.77;;;;;;;;;;6161401;23;20438;-91
2024/02/02 09:21:14;;;;;;;14.55;13.40;;;;;;;;;;6159178;23;20029;-90
2024/02/02 09:24:02;;;;;;;20.27;16.42;;;;;;;;;;6158239;23;20013;-96
2024/02/02 09:33:12;;;;;;;17.67;16.17;;;;;;;;;;6130143;23;20013;-93
2024/02/02 09:35:54;;;;;;;15.88;14.18;;;;;;;;;;6101916;23;20105;-90
2024/02/02 09:38:24;;;;;;;16.98;15.25;;;;;;;;;;6107682;23;20452;-96
2024/02/02 09:41:02;;;;;;;15.82;14.25;;;;;;;;;;6106104;23;20018;-88
2024/02/02 09:47:10;;;;;;;12.00;6.63;;;;;;;;;;6129981;23;20036;-96
2024/02/02 09:52:48;;;;;;;14.10;11.10;;;;;;;;;;6180881;23;20025;-90
2024/02/02 09:55:30;;;;;;;17.67;15.57;;;;;;;;;;6192679;23;20029;-93
2024/02/02 09:58:10;;;;;;;23.27;17.73;;;;;;;;;;6168191;23;20023;-94
2024/02/02 10:00:36;;;;;;;14.60;12.93;;;;;;;;;;6170881;23;19989;-92
2024/02/02 10:03:22;;;;;;;12.65;11.48;;;;;;;;;;6172471;23;20005;-90
2024/02/02 10:06:14;;;;;;;16.65;15.05;;;;;;;;;;6182637;23;19989;-92
2024/02/02 10:08:57;;;;;;;15.68;12.15;;;;;;;;;;6177958;23;20002;-90
2024/02/02 10:11:44;;;;;;;14.48;13.00;;;;;;;;;;6162960;23;20010;-91
2024/02/02 10:17:20;;;;;;;12.05;10.57;;;;;;;;;;6165636;23;20018;-94
2024/02/02 10:19:55;;;;;;;12.70;11.30;;;;;;;;;;6131613;23;20009;-89
2024/02/02 10:22:30;;;;;;;14.02;12.68;;;;;;;;;;6131811;23;20006;-86
2024/02/02 10:25:17;;;;;;;14.13;11.63;;;;;;;;;;6156370;23;20018;-88
2024/02/02 10:28:02;;;;;;;17.88;12.52;;;;;;;;;;6156847;23;20002;-89
2024/02/02 10:30:32;;;;;;;15.35;13.75;;;;;;;;;;6130749;23;20028;-92
2024/02/02 10:33:17;;;;;;;14.00;12.10;;;;;;;;;;6133381;23;20068;-90
2024/02/02 10:36:03;;;;;;;16.33;13.57;;;;;;;;;;6132242;23;20001;-89
2024/02/02 10:38:42;;;;;;;17.60;15.90;;;;;;;;;;6132642;23;20009;-96
2024/02/02 10:41:15;;;;;;;17.60;13.07;;;;;;;;;;6131697;23;20001;-92
2024/02/02 10:44:11;;;;;;;16.23;11.43;;;;;;;;;;6161028;23;20044;-96
2024/02/02 10:46:51;;;;;;;10.68;9.68;;;;;;;;;;6134540;23;20000;-96
2024/02/02 10:49:44;;;;;;;11.73;6.57;;;;;;;;;;6164054;23;20017;-96
2024/02/02 10:55:56;;;;;;;11.32;4.18;;;;;;;;;;6039149;23;20023;-93
2024/02/02 10:58:25;;;;;;;8.60;4.18;;;;;;;;;;6129029;23;20006;-94
2024/02/02 11:01:07;;;;;;;9.93;4.10;;;;;;;;;;6131881;23;20005;-90
2024/02/02 11:03:48;;;;;;;8.65;3.55;;;;;;;;;;6141073;23;20022;-89
2024/02/02 11:08:57;;;;;;;9.63;3.92;;;;;;;;;;6163184;23;20355;-94
2024/02/02 11:11:25;;;;;;;10.63;5.25;;;;;;;;;;6161541;23;20012;-92
2024/02/02 11:14:25;;;;;;;8.60;4.53;;;;;;;;;;6138355;23;20010;-92
2024/02/02 11:17:11;;;;;;;10.48;6.43;;;;;;;;;;6136363;23;20005;-96
2024/02/02 11:19:52;;;;;;;9.57;7.28;;;;;;;;;;6139537;23;20036;-92
2024/02/02 11:22:42;;;;;;;14.32;9.90;;;;;;;;;;6146398;23;20443;-91
2024/02/02 11:27:45;;;;;;;15.98;14.50;;;;;;;;;;6151432;23;20017;-91
2024/02/02 11:30:30;;;;;;;15.43;12.93;;;;;;;;;;6135339;23;20454;-92
2024/02/02 11:32:57;;;;;;;12.05;9.73;;;;;;;;;;6132455;23;20016;-94
2024/02/02 11:35:48;;;;;;;15.73;13.32;;;;;;;;;;6131401;23;20006;-95
2024/02/02 11:38:35;;;;;;;10.65;9.50;;;;;;;;;;6132155;23;20002;-90
2024/02/02 11:41:15;;;;;;;;;;;;;;;;;;;;;
2024/02/02 11:43:50;;;;;;;14.43;13.10;;;;;;;;;;6136793;23;20309;-90
2024/02/02 11:46:26;;;;;;;13.05;11.63;;;;;;;;;;6139580;23;20013;-92
2024/02/02 11:49:05;;;;;;;15.07;13.57;;;;;;;;;;6137177;23;20016;-90
2024/02/02 11:51:32;;;;;;;14.95;12.70;;;;;;;;;;6142878;23;19991;-93
2024/02/02 11:54:02;;;;;;;12.80;8.85;;;;;;;;;;6151499;23;20032;-91
2024/02/02 11:56:51;;;;;;;11.70;9.23;;;;;;;;;;6132524;23;20025;-91
2024/02/02 11:59:23;;;;;;;9.77;8.80;;;;;;;;;;6140225;23;20001;-89
2024/02/02 12:02:08;;;;;;;15.23;11.90;;;;;;;;;;6138561;23;20016;-96
2024/02/02 12:10:32;;;;;;;11.35;8.93;;;;;;;;;;6136569;23;20044;-94
2024/02/02 12:13:07;;;;;;;14.07;12.75;;;;;;;;;;6137618;23;20037;-89
2024/02/02 12:15:45;;;;;;;11.43;10.15;;;;;;;;;;6113238;23;20006;-96
2024/02/02 12:18:11;;;;;;;12.80;11.52;;;;;;;;;;6128399;23;20013;-96
2024/02/02 12:23:51;;;;;;;11.90;10.70;;;;;;;;;;6081266;23;20055;-88
2024/02/02 12:26:17;;;;;;;11.23;10.15;;;;;;;;;;6127874;23;20022;-89
2024/02/02 12:28:47;;;;;;;10.63;9.23;;;;;;;;;;6132250;23;20436;-88
2024/02/02 12:31:16;;;;;;;13.18;11.90;;;;;;;;;;6133627;23;20017;-96
2024/02/02 12:33:42;;;;;;;13.85;10.90;;;;;;;;;;6131692;23;20009;-89
2024/02/02 12:36:11;;;;;;;10.95;9.95;;;;;;;;;;6128261;23;20006;-88
2024/02/02 12:38:37;;;;;;;12.57;11.43;;;;;;;;;;6128483;23;20006;-88
2024/02/02 12:41:09;;;;;;;11.85;10.55;;;;;;;;;;6130197;23;20323;-96
2024/02/02 12:43:36;;;;;;;9.52;8.52;;;;;;;;;;6131285;23;20547;-89
2024/02/02 12:46:02;;;;;;;11.85;10.40;;;;;;;;;;6130101;23;20305;-92
2024/02/02 12:48:34;;;;;;;11.68;8.57;;;;;;;;;;6129490;23;20108;-96
2024/02/02 12:51:01;;;;;;;8.02;7.00;;;;;;;;;;6129730;23;20432;-94
2024/02/02 12:53:27;;;;;;;8.38;7.03;;;;;;;;;;6130218;23;20010;-90
2024/02/02 12:55:53;;;;;;;12.45;8.95;;;;;;;;;;6128289;23;20081;-93
2024/02/02 12:58:19;;;;;;;11.02;9.07;;;;;;;;;;6129790;23;20010;-90
2024/02/02 13:00:45;;;;;;;9.18;7.32;;;;;;;;;;6131487;23;20005;-90
2024/02/02 13:03:12;;;;;;;10.25;7.88;;;;;;;;;;6104081;23;20010;-91
2024/02/02 13:06:00;;;;;;;8.68;7.80;;;;;;;;;;6134647;23;20041;-94
2024/02/02 13:08:42;;;;;;;6.05;4.90;;;;;;;;;;6127898;23;20475;-96
2024/02/02 13:13:58;;;;;;;11.45;6.22;;;;;;;;;;6160580;23;20021;-96
2024/02/02 13:16:43;;;;;;;10.98;5.85;;;;;;;;;;6046915;23;20038;-95
2024/02/02 13:19:27;;;;;;;9.23;6.28;;;;;;;;;;6046669;23;20007;-91
2024/02/02 13:22:33;;;;;;;7.75;5.55;;;;;;;;;;6117851;23;20309;-94
2024/02/02 13:25:44;;;;;;;8.45;3.25;;;;;;;;;;6104263;23;20017;-95
2024/02/02 13:28:18;;;;;;;6.10;3.33;;;;;;;;;;6125246;23;20014;-90
2024/02/02 13:30:47;;;;;;;;;;;;;;;;;;6134774;23;20008;-93
2024/02/02 13:33:41;;;;;;;7.57;4.63;;;;;;;;;;6135313;23;19900;-94
2024/02/02 13:36:18;;;;;;;9.65;4.50;;;;;;;;;;6160948;23;20002;-96
2024/02/02 13:39:18;;;;;;;7.07;5.65;;;;;;;;;;6154074;23;20024;-94
2024/02/02 13:41:47;;;;;;;11.05;4.68;;;;;;;;;;6157119;23;20016;-92
2024/02/02 13:44:23;;;;;;;10.25;8.75;;;;;;;;;;6159841;23;20075;-96
2024/02/02 13:46:57;;;;;;;10.60;6.18;;;;;;;;;;6135374;23;20025;-96
2024/02/02 13:49:31;;;;;;;10.15;9.13;;;;;;;;;;6096647;23;20069;-96
2024/02/02 13:52:07;;;;;;;10.82;7.53;;;;;;;;;;6074173;23;20006;-95
2024/02/02 13:54:43;;;;;;;13.38;12.20;;;;;;;;;;6051180;23;20010;-96
2024/02/02 13:57:11;;;;;;;12.68;11.55;;;;;;;;;;6074125;23;20011;-93
2024/02/02 13:59:40;;;;;;;11.55;6.28;;;;;;;;;;6099011;23;20002;-94
2024/02/02 14:02:26;;;;;;;9.32;5.70;;;;;;;;;;6098706;23;20085;-96
2024/02/02 14:05:05;;;;;;;8.27;7.30;;;;;;;;;;6097382;23;20014;-92
2024/02/02 14:07:31;;;;;;;7.65;4.40;;;;;;;;;;6072806;23;20010;-89
2024/02/02 14:10:16;;;;;;;7.47;4.32;;;;;;;;;;6074416;23;20009;-92
2024/02/02 14:12:53;;;;;;;5.85;4.18;;;;;;;;;;6073789;23;20018;-94
2024/02/02 14:15:33;;;;;;;6.53;4.85;;;;;;;;;;6075191;23;20416;-96
2024/02/02 14:29:15;;;;;;;7.57;5.75;;;;;;;;;;6130542;23;20022;-94
2024/02/02 14:31:41;;;;;;;7.15;3.67;;;;;;;;;;6127972;23;20013;-94
2024/02/02 14:34:08;;;;;;;8.30;5.45;;;;;;;;;;6128676;23;20339;-92
2024/02/02 14:39:56;;;;;;;9.43;4.50;;;;;;;;;;6118912;23;20002;-96
2024/02/02 14:42:29;;;;;;;8.40;4.40;;;;;;;;;;6102466;23;20094;-90
2024/02/02 14:45:20;;;;;;;7.95;5.43;;;;;;;;;;6099381;23;20049;-95
2024/02/02 14:47:58;;;;;;;7.30;5.90;;;;;;;;;;6069835;23;20011;-90
2024/02/02 14:50:38;;;;;;;;;;;;;;;;;;;;;
2024/02/02 14:53:08;;;;;;;12.30;6.35;;;;;;;;;;6053961;23;20098;-89
2024/02/02 14:55:40;;;;;;;8.57;5.55;;;;;;;;;;6079046;23;20006;-94
2024/02/02 14:58:13;;;;;;;6.90;5.25;;;;;;;;;;6074581;23;20026;-94
2024/02/02 15:00:47;;;;;;;8.05;5.05;;;;;;;;;;6046082;23;20018;-96
2024/02/02 15:03:13;;;;;;;11.60;6.20;;;;;;;;;;6068428;23;20033;-90
2024/02/02 15:05:59;;;;;;;8.02;5.35;;;;;;;;;;6107371;23;20135;-95
2024/02/02 15:08:28;;;;;;;12.80;7.10;;;;;;;;;;6106489;23;20033;-95
2024/02/02 15:11:14;;;;;;;12.90;4.43;;;;;;;;;;6130578;23;20010;-93
2024/02/02 15:14:07;;;;;;;9.98;5.57;;;;;;;;;;6110564;23;20013;-96
2024/02/02 15:16:52;;;;;;;7.00;4.10;;;;;;;;;;6110311;23;20002;-96
2024/02/02 15:19:31;;;;;;;7.35;3.90;;;;;;;;;;6119081;23;20002;-96
2024/02/02 15:30:52;;;;;;;5.72;2.97;;;;;;;;;;6169470;23;20018;-93
2024/02/02 15:39:39;;;;;;;5.50;3.47;;;;;;;;;;6115247;23;20070;-95
2024/02/02 15:42:19;;;;;;;6.43;2.70;;;;;;;;;;6062905;23;20038;-93
2024/02/02 15:45:22;;;;;;;6.13;3.33;;;;;;;;;;6116637;23;19994;-93
2024/02/02 15:51:00;;;;;;;6.78;2.97;;;;;;;;;;6083699;23;20007;-96
2024/02/02 15:53:37;;;;;;;7.05;2.90;;;;;;;;;;6079610;23;20002;-96
2024/02/02 15:56:05;;;;;;;6.47;3.30;;;;;;;;;;6080022;23;20006;-91
2024/02/02 15:58:31;;;;;;;5.80;2.63;;;;;;;;;;6107706;23;20007;-89
2024/02/02 16:07:26;;;;;;;5.20;2.30;;;;;;;;;;6161570;23;20044;-91
2024/02/02 16:10:05;;;;;;;6.00;2.92;;;;;;;;;;6180509;23;20043;-91
2024/02/02 16:12:40;;;;;;;10.65;4.30;;;;;;;;;;6166361;23;20029;-89
2024/02/02 16:15:25;;;;;;;5.43;3.22;;;;;;;;;;6115328;23;20057;-90
2024/02/02 16:23:28;;;;;;;7.60;3.40;;;;;;;;;;6103994;23;20010;-93
2024/02/02 16:25:54;;;;;;;6.13;3.50;;;;;;;;;;6086527;23;20014;-95
2024/02/02 16:31:53;;;;;;;7.30;4.00;;;;;;;;;;6061578;23;20029;-90
2024/02/02 16:34:19;;;;;;;10.07;3.40;;;;;;;;;;6084923;23;20013;-90
2024/02/02 16:36:51;;;;;;;7.55;4.20;;;;;;;;;;6079421;23;20093;-94
2024/02/02 16:39:23;;;;;;;7.30;5.10;;;;;;;;;;6076214;23;20038;-96
2024/02/02 16:41:50;;;;;;;12.85;5.65;;;;;;;;;;6076829;23;20030;-89
2024/02/02 16:44:34;;;;;;;12.00;5.00;;;;;;;;;;6075176;23;20014;-95
2024/02/02 16:47:02;;;;;;;7.07;4.30;;;;;;;;;;6079704;23;20072;-90
2024/02/02 16:50:05;;;;;;;9.85;5.10;;;;;;;;;;6075953;23;20007;-94
2024/02/02 16:52:36;;;;;;;8.82;5.40;;;;;;;;;;6095639;23;20017;-95
2024/02/02 16:55:05;;;;;;;6.88;4.50;;;;;;;;;;6075450;23;20003;-93
2024/02/02 16:57:39;;;;;;;8.63;3.70;;;;;;;;;;6074821;23;20118;-92
2024/02/02 17:00:07;;;;;;;7.32;4.72;;;;;;;;;;6097463;23;20090;-89
2024/02/02 17:02:35;;;;;;;8.23;4.78;;;;;;;;;;6075317;23;20006;-90
2024/02/02 17:05:01;;;;;;;10.82;4.85;;;;;;;;;;6078420;23;20041;-94
2024/02/02 17:07:29;;;;;;;8.57;5.43;;;;;;;;;;6084936;23;20003;-93
2024/02/02 17:09:58;;;;;;;6.22;4.00;;;;;;;;;;6114080;23;19999;-93
2024/02/02 17:12:25;;;;;;;10.68;4.57;;;;;;;;;;6100403;23;20001;-92
2024/02/02 17:14:57;;;;;;;11.65;4.68;;;;;;;;;;6101591;23;20515;-96
2024/02/02 17:23:05;;;;;;;9.45;4.78;;;;;;;;;;6111851;23;20027;-90
2024/02/02 17:25:34;;;;;;;9.20;5.53;;;;;;;;;;6084860;23;20026;-91
2024/02/02 17:28:00;;;;;;;7.75;4.20;;;;;;;;;;6078868;23;20009;-96
2024/02/02 17:33:20;;;;;;;8.90;4.75;;;;;;;;;;6134090;23;20394;-96
2024/02/02 17:35:52;;;;;;;5.60;3.95;;;;;;;;;;6138336;23;20010;-93
2024/02/02 17:38:24;;;;;;;10.15;4.55;;;;;;;;;;6137080;23;20017;-94
2024/02/02 17:40:53;;;;;;;8.43;5.20;;;;;;;;;;6132479;23;20010;-89
2024/02/02 17:43:19;;;;;;;9.20;6.43;;;;;;;;;;6133207;23;20018;-91
2024/02/02 17:45:57;;;;;;;9.45;5.60;;;;;;;;;;6126183;23;20256;-92
2024/02/02 17:48:24;;;;;;;9.23;6.55;;;;;;;;;;6046353;23;20125;-89
2024/02/02 17:50:53;;;;;;;12.65;6.65;;;;;;;;;;6053604;23;20014;-88
2024/02/02 17:53:39;;;;;;;12.73;6.82;;;;;;;;;;6047391;23;20687;-90
2024/02/02 17:56:06;;;;;;;9.27;5.55;;;;;;;;;;6056373;23;20003;-90
2024/02/02 17:58:39;;;;;;;11.93;6.30;;;;;;;;;;6056582;23;20011;-91
2024/02/02 18:04:15;;;;;;;12.00;6.10;;;;;;;;;;6024620;23;20132;-92
2024/02/02 18:06:43;;;;;;;11.38;5.80;;;;;;;;;;6053341;23;20336;-89
2024/02/02 18:09:15;;;;;;;11.80;6.68;;;;;;;;;;6052676;23;20017;-87
2024/02/02 18:11:50;;;;;;;13.15;6.30;;;;;;;;;;6053768;23;20003;-88
2024/02/02 18:14:29;;;;;;;12.88;7.53;;;;;;;;;;6080694;23;20029;-90
2024/02/02 18:16:55;;;;;;;12.57;7.18;;;;;;;;;;6169992;23;20013;-91
2024/02/02 18:19:21;;;;;;;9.07;5.63;;;;;;;;;;6172821;23;20016;-90
2024/02/02 18:21:47;;;;;;;8.05;6.32;;;;;;;;;;6115267;23;20030;-91
2024/02/02 18:24:19;;;;;;;8.13;6.15;;;;;;;;;;6109093;23;20009;-91
2024/02/02 18:26:48;;;;;;;9.15;5.78;;;;;;;;;;6112303;23;20017;-96
2024/02/02 18:29:20;;;;;;;11.85;6.68;;;;;;;;;;6110076;23;20480;-91
2024/02/02 18:31:48;;;;;;;8.32;6.47;;;;;;;;;;6089595;23;20037;-91
2024/02/02 18:34:14;;;;;;;10.07;5.68;;;;;;;;;;6080454;23;20064;-89
2024/02/02 18:47:19;;;;;;;9.65;5.03;;;;;;;;;;6167566;23;20021;-89
2024/02/02 18:49:49;;;;;;;7.13;5.13;;;;;;;;;;6166472;23;20001;-90
2024/02/02 18:52:15;;;;;;;9.68;5.60;;;;;;;;;;6192955;23;20001;-88
2024/02/02 18:54:44;;;;;;;8.57;4.38;;;;;;;;;;6165145;23;20001;-89
2024/02/02 18:57:37;;;;;;;9.05;5.00;;;;;;;;;;6166023;23;20072;-96
2024/02/02 19:05:52;;;;;;;6.63;4.35;;;;;;;;;;6107791;23;20027;-93
2024/02/02 19:08:44;;;;;;;6.65;4.60;;;;;;;;;;6103706;23;20014;-96
2024/02/02 19:14:22;;;;;;;7.72;4.38;;;;;;;;;;6113471;23;20094;-89
2024/02/02 19:16:56;;;;;;;8.52;5.60;;;;;;;;;;6116499;23;20062;-92
2024/02/02 19:28:36;;;;;;;7.47;5.38;;;;;;;;;;6133811;23;20022;-89
2024/02/02 19:34:09;;;;;;;6.72;4.80;;;;;;;;;;6159936;23;20029;-95
2024/02/02 19:36:35;;;;;;;10.15;6.22;;;;;;;;;;6137680;23;20062;-88
2024/02/02 19:39:08;;;;;;;6.72;4.65;;;;;;;;;;6117599;23;20013;-90
2024/02/02 19:41:49;;;;;;;6.72;4.32;;;;;;;;;;6144506;23;20006;-91
2024/02/02 19:44:21;;;;;;;7.88;5.22;;;;;;;;;;6099542;23;20108;-88
2024/02/02 19:52:19;;;;;;;4.25;3.70;;;;;;;;;;6081814;23;20027;-88
2024/02/02 19:55:17;;;;;;;4.70;4.13;;;;;;;;;;6054838;23;20011;-96
2024/02/02 19:57:46;;;;;;;5.15;4.65;;;;;;;;;;5943349;24;20008;-96
2024/02/02 20:00:22;;;;;;;5.45;4.18;;;;;;;;;;5966161;24;20004;-90
2024/02/02 20:02:56;;;;;;;5.10;3.75;;;;;;;;;;5984902;23;20528;-89
2024/02/02 20:05:51;;;;;;;4.07;3.20;;;;;;;;;;6004572;23;20466;-96
2024/02/02 20:11:12;;;;;;;5.82;4.22;;;;;;;;;;6155737;23;20022;-96
2024/02/02 20:21:56;;;;;;;5.10;3.30;;;;;;;;;;6141189;23;20020;-85
2024/02/02 20:35:07;;;;;;;3.55;2.88;;;;;;;;;;6184342;23;20025;-94
2024/02/02 20:37:36;;;;;;;4.80;3.95;;;;;;;;;;6171540;23;20009;-96
2024/02/02 20:40:19;;;;;;;6.43;4.70;;;;;;;;;;6200160;23;20016;-89
2024/02/02 20:42:48;;;;;;;6.88;6.15;;;;;;;;;;6204058;23;20464;-96
2024/02/02 20:48:43;;;;;;;4.50;3.60;;;;;;;;;;6148706;23;20048;-96
2024/02/02 20:51:35;;;;;;;4.47;2.88;;;;;;;;;;6145238;23;20130;-96
2024/02/02 20:54:19;;;;;;;6.70;4.38;;;;;;;;;;6145235;23;20013;-96
2024/02/02 20:56:49;;;;;;;5.35;3.75;;;;;;;;;;6142164;23;20010;-95
2024/02/02 20:59:28;;;;;;;5.03;3.13;;;;;;;;;;6140180;23;20022;-92
2024/02/02 21:02:15;;;;;;;5.50;3.58;;;;;;;;;;6135591;23;20033;-96
2024/02/02 21:05:01;;;;;;;;;;;;;;;;;;;;;
2024/02/02 21:07:36;;;;;;;5.85;5.00;;;;;;;;;;6117706;23;20033;-96
2024/02/02 21:10:20;;;;;;;4.75;3.75;;;;;;;;;;6115911;23;20009;-94
2024/02/02 21:12:49;;;;;;;5.78;5.28;;;;;;;;;;6139125;23;20006;-96
2024/02/02 21:15:18;;;;;;;5.18;3.88;;;;;;;;;;6109424;23;20006;-96
2024/02/02 21:18:05;;;;;;;4.22;3.42;;;;;;;;;;6112906;23;20010;-95
2024/02/02 21:20:50;;;;;;;;;;;;;;;;;;;;;
2024/02/02 21:23:30;;;;;;;4.40;3.90;;;;;;;;;;6137480;23;20036;-96
2024/02/02 21:26:12;;;;;;;4.18;3.78;;;;;;;;;;6110076;23;20013;-90
2024/02/02 21:28:57;;;;;;;4.75;4.25;;;;;;;;;;6121099;23;19990;-92
2024/02/02 21:34:23;;;;;;;4.38;3.17;;;;;;;;;;6118732;23;20028;-96
2024/02/02 21:36:58;;;;;;;4.32;3.55;;;;;;;;;;6105591;23;20009;-90
2024/02/02 21:39:27;;;;;;;3.40;2.97;;;;;;;;;;6104841;23;20013;-90
2024/02/02 21:42:04;;;;;;;2.88;2.55;;;;;;;;;;6108790;23;20064;-94
2024/02/02 21:44:35;;;;;;;3.28;2.90;;;;;;;;;;6190089;23;20057;-96
2024/02/02 21:47:08;;;;;;;3.28;2.45;;;;;;;;;;6156121;23;20032;-94
2024/02/02 21:49:37;;;;;;;2.90;2.60;;;;;;;;;;6166942;23;20142;-96
2024/02/02 21:52:23;;;;;;;3.22;2.28;;;;;;;;;;6165040;23;20023;-93
2024/02/02 21:55:23;;;;;;;3.90;2.40;;;;;;;;;;6165341;23;20001;-96
2024/02/02 21:58:27;;;;;;;3.55;2.67;;;;;;;;;;6158710;23;20101;-96
2024/02/02 22:00:56;;;;;;;4.68;3.65;;;;;;;;;;6165117;23;20009;-96
2024/02/02 22:03:22;;;;;;;4.10;3.55;;;;;;;;;;6164377;23;20008;-95
2024/02/02 22:05:55;;;;;;;3.10;2.65;;;;;;;;;;6171803;23;20009;-92
2024/02/02 22:08:21;;;;;;;3.50;1.95;;;;;;;;;;6168510;23;20005;-91
2024/02/02 22:10:50;;;;;;;2.88;2.35;;;;;;;;;;6172833;23;20001;-95
2024/02/02 22:15:50;;;;;;;3.13;2.55;;;;;;;;;;6169135;23;20022;-95
2024/02/02 22:18:28;;;;;;;3.20;2.50;;;;;;;;;;6121436;23;20041;-96
2024/02/02 22:21:04;;;;;;;4.13;2.50;;;;;;;;;;6114909;23;20045;-96
2024/02/02 22:26:05;;;;;;;4.85;4.22;;;;;;;;;;6140275;23;20022;-90
2024/02/02 22:29:05;;;;;;;5.43;3.75;;;;;;;;;;6133456;23;20072;-96
2024/02/02 22:31:39;;;;;;;3.13;2.30;;;;;;;;;;6133826;23;19998;-95
2024/02/02 22:34:48;;;;;;;3.25;2.95;;;;;;;;;;6107115;23;20006;-95
2024/02/02 22:37:23;;;;;;;3.35;2.83;;;;;;;;;;6027214;23;19995;-95
2024/02/02 22:39:49;;;;;;;2.40;1.90;;;;;;;;;;6022837;23;20014;-90
2024/02/02 22:42:27;;;;;;;3.25;2.75;;;;;;;;;;6080911;23;19998;-96
2024/02/02 22:45:03;;;;;;;3.80;3.45;;;;;;;;;;6115008;23;19998;-96
2024/02/02 22:47:30;;;;;;;3.35;2.55;;;;;;;;;;6111843;23;20062;-92
2024/02/02 22:50:05;;;;;;;3.45;2.78;;;;;;;;;;6116002;23;20010;-96
2024/02/02 22:53:07;;;;;;;3.25;2.53;;;;;;;;;;6118730;23;20037;-90
2024/02/02 22:55:33;;;;;;;4.82;3.25;;;;;;;;;;6115989;23;20002;-90
2024/02/02 22:58:08;;;;;;;3.17;2.88;;;;;;;;;;6110590;23;20077;-88
2024/02/02 23:00:34;;;;;;;4.60;3.58;;;;;;;;;;6112805;23;20006;-88
2024/02/02 23:03:00;;;;;;;4.03;3.72;;;;;;;;;;6137399;23;20053;-91
2024/02/02 23:15:59;;;;;;;5.28;4.47;;;;;;;;;;6150101;23;20010;-90
2024/02/02 23:18:29;;;;;;;4.20;3.78;;;;;;;;;;6115395;23;20017;-96
2024/02/02 23:20:57;;;;;;;3.88;3.55;;;;;;;;;;6132233;23;20025;-90
2024/02/02 23:23:24;;;;;;;4.20;3.42;;;;;;;;;;6110159;23;20006;-89
2024/02/02 23:25:50;;;;;;;5.45;5.05;;;;;;;;;;6105910;23;20037;-90
2024/02/02 23:28:30;;;;;;;3.85;3.55;;;;;;;;;;6135936;23;20020;-92
2024/02/02 23:30:56;;;;;;;3.60;3.25;;;;;;;;;;6112155;23;19998;-91
2024/02/02 23:33:25;;;;;;;15.38;7.72;;;;;;;;;;6110787;23;20336;-89
2024/02/02 23:36:18;;;;;;;6.07;4.47;;;;;;;;;;6109155;23;20002;-96
2024/02/02 23:38:56;;;;;;;4.13;3.75;;;;;;;;;;6109233;23;20037;-96
2024/02/02 23:41:26;;;;;;;15.98;10.70;;;;;;;;;;6113403;23;20439;-95
2024/02/02 23:43:54;;;;;;;9.85;7.43;;;;;;;;;;6108574;23;20013;-92
2024/02/02 23:46:20;;;;;;;4.47;3.80;;;;;;;;;;6108962;23;20002;-89
2024/02/02 23:48:46;;;;;;;7.30;6.57;;;;;;;;;;6107507;23;20009;-89
2024/02/02 23:51:17;;;;;;;7.25;5.90;;;;;;;;;;6109170;23;20026;-94
2024/02/02 23:53:46;;;;;;;4.78;4.38;;;;;;;;;;6105906;23;20029;-96
2024/02/02 23:56:32;;;;;;;5.82;5.43;;;;;;;;;;6106404;23;20037;-96
2024/02/02 23:59:02;;;;;;;5.72;5.13;;;;;;;;;;6086971;23;20006;-93
